Time;durP1;ratioP1;P1;durP2;ratioP2;P2;SDS_P1;SDS_P2;PMS_P1;PMS_P2;Temp;Humidity;BMP_temperature;BMP_pressure;BME280_temperature;BME280_humidity;BME280_pressure;Samples;Min_cycle;Max_cycle;Signal;HPM_P1;HPM_P2
2022/01/17 00:01:46;;;;;;;13.20;5.90;;;29.00;98.20;;;;;;5090804;28;20732;-84
2022/01/17 00:04:13;;;;;;;13.48;6.10;;;29.10;98.80;;;;;;5091797;28;20369;-84
2022/01/17 00:06:43;;;;;;;10.45;5.90;;;29.30;98.00;;;;;;5092065;28;20399;-84
2022/01/17 00:09:12;;;;;;;14.50;6.50;;;29.40;97.50;;;;;;5092158;28;20369;-84
2022/01/17 00:11:43;;;;;;;10.63;5.70;;;29.20;96.70;;;;;;5091665;28;20381;-84
2022/01/17 00:14:15;;;;;;;9.98;6.03;;;29.10;98.30;;;;;;5091545;28;20369;-85
2022/01/17 00:16:49;;;;;;;12.15;5.80;;;29.10;97.50;;;;;;5091644;28;20883;-85
2022/01/17 00:21:52;;;;;;;10.03;5.60;;;29.90;96.50;;;;;;5090481;28;20880;-85
2022/01/17 00:24:21;;;;;;;11.90;5.30;;;30.00;96.00;;;;;;5091383;28;20402;-85
2022/01/17 00:26:48;;;;;;;12.60;5.37;;;30.40;95.10;;;;;;5091214;28;20767;-84
2022/01/17 00:29:15;;;;;;;10.07;5.20;;;30.70;94.40;;;;;;5091581;28;20368;-85
2022/01/17 00:31:42;;;;;;;10.05;5.28;;;31.10;93.30;;;;;;5091313;28;20364;-85
2022/01/17 00:34:09;;;;;;;10.80;5.10;;;31.00;92.70;;;;;;5089918;28;20387;-85
2022/01/17 00:36:36;;;;;;;11.38;5.05;;;31.20;92.30;;;;;;5091143;28;20373;-85
2022/01/17 00:39:04;;;;;;;11.00;5.30;;;31.10;91.60;;;;;;5090787;28;20428;-86
2022/01/17 00:41:31;;;;;;;11.13;5.40;;;30.90;91.20;;;;;;5091106;28;20943;-85
2022/01/17 00:43:58;;;;;;;11.18;5.18;;;30.40;93.30;;;;;;5091074;28;20372;-85
2022/01/17 00:46:25;;;;;;;10.75;5.30;;;30.40;93.50;;;;;;5091803;28;20733;-85
2022/01/17 00:48:52;;;;;;;9.82;5.10;;;30.80;93.80;;;;;;5091003;28;20922;-85
2022/01/17 00:51:21;;;;;;;12.83;4.97;;;31.10;91.50;;;;;;5091003;28;20376;-85
2022/01/17 00:53:49;;;;;;;10.20;4.93;;;31.20;91.70;;;;;;5090860;28;20376;-85
2022/01/17 00:56:16;;;;;;;11.27;4.90;;;31.60;90.70;;;;;;5090892;28;20972;-85
2022/01/17 01:02:05;;;;;;;10.38;4.60;;;32.20;83.80;;;;;;5090681;28;20359;-85
2022/01/17 01:04:32;;;;;;;9.32;4.90;;;32.10;85.80;;;;;;5090615;28;20408;-83
2022/01/17 01:06:59;;;;;;;8.77;5.27;;;32.10;84.90;;;;;;5090604;28;20900;-83
2022/01/17 01:09:31;;;;;;;8.27;4.68;;;31.80;85.90;;;;;;5089599;28;20376;-83
2022/01/17 01:11:58;;;;;;;11.48;4.95;;;32.10;86.70;;;;;;5090659;28;20365;-83
2022/01/17 01:14:25;;;;;;;9.13;4.63;;;32.80;82.70;;;;;;5090594;28;20455;-84
2022/01/17 01:16:54;;;;;;;9.10;4.50;;;33.30;81.40;;;;;;5090456;28;20432;-82
2022/01/17 01:30:10;;;;;;;8.88;4.63;;;33.40;74.90;;;;;;5090593;28;20427;-83
2022/01/17 01:32:45;;;;;;;7.30;4.05;;;33.00;76.30;;;;;;5090210;28;20404;-83
2022/01/17 01:35:15;;;;;;;6.55;4.20;;;32.50;76.60;;;;;;5090103;28;20376;-83
2022/01/17 01:37:44;;;;;;;9.68;4.40;;;32.40;75.60;;;;;;5089892;28;20385;-84
2022/01/17 01:40:12;;;;;;;10.18;4.90;;;32.30;78.30;;;;;;5090016;28;20371;-83
2022/01/17 01:42:40;;;;;;;10.70;4.90;;;32.50;78.50;;;;;;5089926;28;20368;-85
2022/01/17 01:45:08;;;;;;;8.07;4.20;;;32.70;79.70;;;;;;5089669;28;20404;-85
2022/01/17 01:47:37;;;;;;;9.82;4.53;;;32.90;79.30;;;;;;5088487;28;20481;-85
2022/01/17 01:50:04;;;;;;;11.30;4.30;;;33.20;77.00;;;;;;5089733;28;20368;-84
2022/01/17 01:52:31;;;;;;;10.48;4.45;;;33.20;76.70;;;;;;5089812;28;20426;-84
2022/01/17 01:54:58;;;;;;;7.63;3.90;;;33.20;77.30;;;;;;5089694;28;20369;-83
2022/01/17 01:57:25;;;;;;;11.27;3.88;;;33.50;74.00;;;;;;5089986;28;20778;-84
2022/01/17 01:59:52;;;;;;;8.98;4.03;;;34.10;73.30;;;;;;5089405;28;20408;-85
2022/01/17 02:02:19;;;;;;;12.33;4.10;;;34.80;70.00;;;;;;5089522;28;20384;-84
2022/01/17 02:04:46;;;;;;;7.78;3.80;;;35.10;71.00;;;;;;5089591;28;20391;-83
2022/01/17 02:07:13;;;;;;;7.68;3.95;;;35.10;69.30;;;;;;5089303;28;20401;-84
2022/01/17 02:09:42;;;;;;;8.52;4.03;;;35.40;67.80;;;;;;5089284;28;20560;-84
2022/01/17 02:12:09;;;;;;;8.57;4.00;;;35.20;65.20;;;;;;5089590;28;20888;-84
2022/01/17 02:14:36;;;;;;;7.37;4.00;;;35.30;66.00;;;;;;5089587;28;20370;-84
2022/01/17 02:17:05;;;;;;;9.88;4.65;;;35.30;66.80;;;;;;5089154;28;20380;-84
2022/01/17 02:19:34;;;;;;;7.05;4.10;;;34.80;66.40;;;;;;5088965;28;20400;-84
2022/01/17 02:22:01;;;;;;;10.85;4.18;;;34.80;66.90;;;;;;5089145;28;20547;-84
2022/01/17 02:24:28;;;;;;;7.22;4.10;;;34.90;67.20;;;;;;5089032;28;20390;-83
2022/01/17 02:26:55;;;;;;;7.93;3.55;;;34.70;68.80;;;;;;5088926;28;20404;-84
2022/01/17 02:29:22;;;;;;;7.03;3.60;;;35.50;64.10;;;;;;5089071;28;20383;-83
2022/01/17 02:31:49;;;;;;;7.63;3.50;;;35.70;64.00;;;;;;5088941;28;20404;-84
2022/01/17 02:34:17;;;;;;;6.05;3.55;;;36.00;62.40;;;;;;5089164;28;20738;-83
2022/01/17 02:36:45;;;;;;;13.40;3.80;;;36.40;60.40;;;;;;5087519;28;20736;-83
2022/01/17 02:39:14;;;;;;;9.07;3.70;;;35.80;59.50;;;;;;5088698;28;20903;-83
2022/01/17 02:41:43;;;;;;;8.52;4.07;;;35.40;61.90;;;;;;5088761;28;20467;-83
2022/01/17 02:44:11;;;;;;;8.93;3.70;;;35.20;63.20;;;;;;5088519;28;20455;-83
2022/01/17 02:46:38;;;;;;;9.25;4.05;;;35.10;63.60;;;;;;5088789;28;20414;-84
2022/01/17 02:49:06;;;;;;;7.28;3.70;;;35.50;62.30;;;;;;5088782;28;20396;-83
2022/01/17 02:51:34;;;;;;;8.73;3.53;;;35.80;61.60;;;;;;5088630;28;20923;-83
2022/01/17 02:54:02;;;;;;;7.18;3.55;;;36.10;59.00;;;;;;5088598;28;20449;-83
2022/01/17 02:56:29;;;;;;;8.57;3.63;;;35.60;60.20;;;;;;5088449;28;20491;-84
2022/01/17 02:58:57;;;;;;;7.43;3.35;;;35.60;60.50;;;;;;5088526;28;20451;-83
2022/01/17 03:01:28;;;;;;;6.22;3.30;;;35.60;60.80;;;;;;5088386;28;20411;-84
2022/01/17 03:03:56;;;;;;;8.57;3.33;;;36.10;61.30;;;;;;5088530;28;20444;-83
2022/01/17 03:06:24;;;;;;;7.32;3.00;;;37.10;59.10;;;;;;5088157;28;20457;-82
2022/01/17 03:08:51;;;;;;;8.32;3.50;;;37.70;56.40;;;;;;5088440;28;20397;-81
2022/01/17 03:11:22;;;;;;;7.22;3.28;;;38.00;55.60;;;;;;5088364;28;20384;-82
2022/01/17 03:13:50;;;;;;;8.00;3.50;;;38.50;54.10;;;;;;5088224;28;20372;-82
2022/01/17 03:16:21;;;;;;;9.15;3.58;;;38.50;53.90;;;;;;5088411;28;20860;-82
2022/01/17 03:18:51;;;;;;;7.78;3.67;;;38.80;55.10;;;;;;5088327;28;20456;-82
2022/01/17 03:21:19;;;;;;;7.72;3.30;;;38.80;54.20;;;;;;5088241;28;20882;-83
2022/01/17 03:23:53;;;;;;;7.75;3.42;;;39.20;53.00;;;;;;5088230;28;20379;-82
2022/01/17 03:26:20;;;;;;;9.43;3.45;;;39.50;53.20;;;;;;5088150;28;20898;-81
2022/01/17 03:28:47;;;;;;;7.35;3.40;;;38.90;52.80;;;;;;5088210;28;20377;-83
2022/01/17 03:31:14;;;;;;;9.83;3.37;;;38.50;54.30;;;;;;5088068;28;20880;-83
2022/01/17 03:33:41;;;;;;;5.72;3.20;;;38.70;52.80;;;;;;5092040;28;20407;-82
2022/01/17 03:36:09;;;;;;;8.55;3.40;;;38.20;53.60;;;;;;5092336;28;20368;-82
2022/01/17 03:38:36;;;;;;;6.63;3.10;;;38.20;54.20;;;;;;5092062;28;20421;-83
2022/01/17 03:41:07;;;;;;;6.60;3.08;;;38.70;52.40;;;;;;5092551;28;20375;-83
2022/01/17 03:43:35;;;;;;;6.72;3.00;;;38.60;53.30;;;;;;5092299;28;20367;-83
2022/01/17 03:46:03;;;;;;;5.78;3.17;;;38.50;53.80;;;;;;5092196;28;20436;-83
2022/01/17 03:48:31;;;;;;;7.10;3.10;;;38.90;52.70;;;;;;5092511;28;20384;-83
2022/01/17 03:50:59;;;;;;;6.70;2.90;;;39.20;52.20;;;;;;5092178;28;20446;-83
2022/01/17 03:53:27;;;;;;;5.30;3.10;;;38.70;52.00;;;;;;5093068;28;20697;-83
2022/01/17 03:55:55;;;;;;;7.20;3.03;;;37.50;53.40;;;;;;5092049;28;20381;-83
2022/01/17 03:58:25;;;;;;;6.60;3.27;;;37.30;53.10;;;;;;5093012;28;20403;-83
2022/01/17 04:00:55;;;;;;;6.15;3.22;;;36.90;54.90;;;;;;5092002;28;20368;-81
2022/01/17 04:03:22;;;;;;;7.10;3.30;;;36.70;55.20;;;;;;5091846;28;20421;-82
2022/01/17 04:05:50;;;;;;;7.87;3.53;;;36.60;55.70;;;;;;5091720;28;20875;-82
2022/01/17 04:08:17;;;;;;;6.10;3.47;;;36.00;56.30;;;;;;5091671;28;20384;-81
2022/01/17 04:10:44;;;;;;;9.70;3.35;;;35.40;57.80;;;;;;5092029;28;20859;-82
2022/01/17 04:13:11;;;;;;;7.55;3.20;;;35.30;57.60;;;;;;5091612;28;20425;-81
2022/01/17 04:15:38;;;;;;;8.13;3.45;;;35.60;58.00;;;;;;5090332;28;20467;-81
2022/01/17 04:18:07;;;;;;;6.72;3.30;;;35.60;57.20;;;;;;5091562;28;20376;-82
2022/01/17 04:20:37;;;;;;;10.20;3.47;;;35.90;58.20;;;;;;5091600;28;20377;-83
2022/01/17 04:23:07;;;;;;;10.13;3.67;;;36.30;56.90;;;;;;5091408;28;20365;-81
2022/01/17 04:25:36;;;;;;;9.98;3.90;;;36.30;56.10;;;;;;5091584;28;20429;-83
2022/01/17 04:28:05;;;;;;;11.95;3.40;;;36.00;57.80;;;;;;5091434;28;20751;-80
2022/01/17 04:30:32;;;;;;;8.82;3.42;;;35.60;57.60;;;;;;5091911;28;20392;-82
2022/01/17 04:33:00;;;;;;;10.80;3.70;;;35.70;56.40;;;;;;5091420;28;20405;-82
2022/01/17 04:35:29;;;;;;;10.73;3.70;;;35.80;57.60;;;;;;5091581;28;20369;-80
2022/01/17 04:38:06;;;;;;;8.60;3.70;;;35.40;57.30;;;;;;5090992;28;20556;-84
2022/01/17 04:40:37;;;;;;;12.48;3.67;;;35.20;58.10;;;;;;5091638;28;20361;-85
2022/01/17 04:43:22;;;;;;;13.20;3.90;;;35.10;59.40;;;;;;5091477;28;20372;-83
2022/01/17 04:45:51;;;;;;;10.83;3.40;;;35.00;58.90;;;;;;5091094;28;20801;-82
2022/01/17 04:48:18;;;;;;;11.93;3.80;;;34.90;59.10;;;;;;5091079;28;20422;-82
2022/01/17 04:50:45;;;;;;;9.93;3.53;;;34.80;59.60;;;;;;5090962;28;20841;-82
2022/01/17 04:53:16;;;;;;;11.93;3.80;;;35.00;58.90;;;;;;5090962;28;20372;-82
2022/01/17 04:55:44;;;;;;;14.10;3.80;;;35.00;58.50;;;;;;5091692;28;20731;-86
2022/01/17 04:58:12;;;;;;;12.07;4.28;;;35.30;59.40;;;;;;5090971;28;20372;-81
2022/01/17 05:00:46;;;;;;;9.70;3.80;;;35.40;59.70;;;;;;5090835;28;20792;-82
2022/01/17 05:03:23;;;;;;;8.35;3.70;;;35.60;59.00;;;;;;5090770;28;20388;-82
2022/01/17 05:05:50;;;;;;;9.13;3.78;;;36.00;57.80;;;;;;5090611;28;20396;-83
2022/01/17 05:08:18;;;;;;;17.27;4.32;;;36.00;57.70;;;;;;5090583;28;20376;-82
2022/01/17 05:10:50;;;;;;;14.63;3.93;;;35.70;58.40;;;;;;5090895;28;20811;-82
2022/01/17 05:13:21;;;;;;;10.02;4.00;;;34.90;59.60;;;;;;5090763;28;20372;-82
2022/01/17 05:16:07;;;;;;;11.23;4.20;;;34.30;61.00;;;;;;5090343;28;20369;-82
2022/01/17 05:21:01;;;;;;;8.77;3.70;;;33.90;61.80;;;;;;5090485;28;20741;-81
2022/01/17 05:23:28;;;;;;;11.05;4.15;;;34.10;62.10;;;;;;5090375;28;20392;-81
2022/01/17 05:25:55;;;;;;;9.95;4.03;;;33.90;62.00;;;;;;5090058;28;20412;-81
2022/01/17 05:28:22;;;;;;;11.10;4.00;;;33.90;63.20;;;;;;5090101;28;20376;-81
2022/01/17 05:30:49;;;;;;;9.50;3.90;;;34.00;63.60;;;;;;5090167;28;20365;-81
2022/01/17 05:33:16;;;;;;;21.42;4.50;;;34.60;62.30;;;;;;5090164;28;20433;-80
2022/01/17 05:35:43;;;;;;;8.13;3.40;;;35.20;61.10;;;;;;5090067;28;20368;-80
2022/01/17 05:38:10;;;;;;;7.77;3.83;;;35.80;59.60;;;;;;5089781;28;20457;-80
2022/01/17 05:40:37;;;;;;;10.82;4.53;;;36.50;60.10;;;;;;5090440;28;20472;-81
2022/01/17 05:43:04;;;;;;;9.32;4.53;;;37.20;60.40;;;;;;5089930;28;20433;-81
2022/01/17 05:45:31;;;;;;;9.73;4.70;;;37.70;59.10;;;;;;5088915;28;20400;-81
2022/01/17 05:47:58;;;;;;;11.35;4.55;;;38.10;58.80;;;;;;5088628;28;20392;-83
2022/01/17 05:50:25;;;;;;;11.03;4.37;;;38.20;58.30;;;;;;5089891;28;20418;-83
2022/01/17 05:52:52;;;;;;;13.30;4.90;;;38.00;58.70;;;;;;5089750;28;20527;-81
2022/01/17 05:55:19;;;;;;;9.70;4.93;;;37.80;59.10;;;;;;5089274;28;20748;-82
2022/01/17 05:57:47;;;;;;;10.00;4.78;;;37.50;59.60;;;;;;5089421;28;20808;-81
2022/01/17 06:00:16;;;;;;;10.45;5.35;;;37.30;59.90;;;;;;5089542;28;20372;-82
2022/01/17 06:02:43;;;;;;;10.40;4.93;;;36.50;61.10;;;;;;5089549;28;20744;-81
2022/01/17 06:05:12;;;;;;;11.45;5.50;;;36.20;63.00;;;;;;5089817;28;20399;-81
2022/01/17 06:07:39;;;;;;;8.82;5.50;;;36.00;63.50;;;;;;5089438;28;20462;-82
2022/01/17 06:10:07;;;;;;;9.63;5.40;;;36.10;63.20;;;;;;5089551;28;20373;-81
2022/01/17 06:12:34;;;;;;;11.93;5.57;;;36.20;64.00;;;;;;5089397;28;20414;-81
2022/01/17 06:15:02;;;;;;;10.73;5.68;;;36.30;64.00;;;;;;5089410;28;20376;-80
2022/01/17 06:17:29;;;;;;;13.23;6.22;;;36.40;63.90;;;;;;5089313;28;20743;-81
2022/01/17 06:19:56;;;;;;;11.80;6.80;;;36.40;63.80;;;;;;5089311;28;20424;-81
2022/01/17 06:22:23;;;;;;;13.48;7.60;;;36.40;63.10;;;;;;5089054;28;20787;-86
2022/01/17 06:24:50;;;;;;;15.07;8.38;;;36.20;64.00;;;;;;5089385;28;20373;-80
2022/01/17 06:27:18;;;;;;;14.23;7.53;;;36.10;63.70;;;;;;5089006;28;20483;-82
2022/01/17 06:29:44;;;;;;;16.17;8.65;;;35.80;64.20;;;;;;5088992;28;20403;-84
2022/01/17 06:32:11;;;;;;;18.05;9.82;;;35.50;65.30;;;;;;5089035;28;20377;-81
2022/01/17 06:34:38;;;;;;;17.58;9.80;;;35.30;67.10;;;;;;5089259;28;20368;-82
2022/01/17 06:37:05;;;;;;;16.38;9.88;;;35.00;67.80;;;;;;5088695;28;20459;-82
2022/01/17 06:39:33;;;;;;;17.20;9.10;;;34.80;69.20;;;;;;5089047;28;20404;-80
2022/01/17 06:42:00;;;;;;;18.42;9.27;;;34.40;70.10;;;;;;5088809;28;20477;-83
2022/01/17 06:44:27;;;;;;;13.57;7.80;;;34.20;70.90;;;;;;5088812;28;20368;-82
2022/01/17 06:46:54;;;;;;;16.42;8.40;;;33.90;71.60;;;;;;5088504;28;20925;-81
2022/01/17 06:49:21;;;;;;;13.20;8.43;;;33.80;72.40;;;;;;5088592;28;20733;-83
2022/01/17 06:51:48;;;;;;;14.18;8.93;;;33.50;73.70;;;;;;5088684;28;20387;-81
2022/01/17 06:54:15;;;;;;;16.48;9.50;;;33.30;74.70;;;;;;5088689;28;20382;-81
2022/01/17 06:56:44;;;;;;;17.93;10.30;;;33.20;76.20;;;;;;5088640;28;20387;-81
2022/01/17 06:59:15;;;;;;;22.92;10.70;;;33.10;77.10;;;;;;5088467;28;20874;-83
2022/01/17 07:01:42;;;;;;;23.83;16.92;;;33.00;77.40;;;;;;5088518;28;20380;-81
2022/01/17 07:04:10;;;;;;;28.25;19.15;;;33.00;78.50;;;;;;5088633;28;20391;-81
2022/01/17 07:06:38;;;;;;;31.52;21.13;;;32.90;80.20;;;;;;5087598;28;20395;-82
2022/01/17 07:09:08;;;;;;;20.20;12.60;;;32.60;80.60;;;;;;5088628;28;20372;-83
2022/01/17 07:11:38;;;;;;;17.67;11.75;;;32.30;81.40;;;;;;5088390;28;20873;-81
2022/01/17 07:14:09;;;;;;;21.50;11.60;;;32.10;82.10;;;;;;5088557;28;20376;-82
2022/01/17 07:16:38;;;;;;;17.05;11.73;;;32.00;82.80;;;;;;5088960;28;20883;-81
2022/01/17 07:19:07;;;;;;;28.50;12.53;;;32.00;83.80;;;;;;5088354;28;20380;-81
2022/01/17 07:21:35;;;;;;;17.80;11.70;;;31.90;84.70;;;;;;5088393;28;20455;-82
2022/01/17 07:24:02;;;;;;;21.92;11.70;;;31.50;86.50;;;;;;5088312;28;20365;-82
2022/01/17 07:26:29;;;;;;;20.10;11.93;;;31.30;88.00;;;;;;5088286;28;20395;-81
2022/01/17 07:28:56;;;;;;;30.30;12.90;;;31.10;89.80;;;;;;5088362;28;20856;-82
2022/01/17 07:31:23;;;;;;;22.95;12.43;;;31.00;90.80;;;;;;5088356;28;20383;-82
2022/01/17 07:33:50;;;;;;;19.25;11.48;;;31.00;91.50;;;;;;5088288;28;20396;-81
2022/01/17 07:36:19;;;;;;;20.85;11.20;;;30.80;92.00;;;;;;5088226;28;20442;-82
2022/01/17 07:38:47;;;;;;;16.05;11.02;;;30.80;92.50;;;;;;5088065;28;20508;-81
2022/01/17 07:41:14;;;;;;;23.33;11.95;;;30.70;92.70;;;;;;5088284;28;20384;-79
2022/01/17 07:43:42;;;;;;;19.25;11.10;;;30.60;93.40;;;;;;5088092;28;20717;-84
2022/01/17 07:46:22;;;;;;;19.50;11.87;;;30.60;93.40;;;;;;5087004;28;20704;-80
2022/01/17 07:51:27;;;;;;;16.95;10.75;;;30.30;93.70;;;;;;5088092;28;20425;-81
2022/01/17 07:53:56;;;;;;;15.57;10.30;;;30.30;94.10;;;;;;5087988;28;20381;-80
2022/01/17 07:56:25;;;;;;;17.88;10.40;;;30.30;93.80;;;;;;5088035;28;20890;-83
2022/01/17 07:58:52;;;;;;;17.92;10.13;;;30.30;93.80;;;;;;5087883;28;20413;-84
2022/01/17 08:01:20;;;;;;;17.70;10.27;;;30.20;94.30;;;;;;5088030;28;20461;-84
2022/01/17 08:03:47;;;;;;;18.50;10.00;;;30.10;94.60;;;;;;5087813;28;20369;-86
2022/01/17 08:06:14;;;;;;;16.65;10.07;;;30.00;94.90;;;;;;5087787;28;20541;-84
2022/01/17 08:08:41;;;;;;;16.47;9.63;;;29.80;95.20;;;;;;5088066;28;20384;-84
2022/01/17 08:11:08;;;;;;;16.40;10.00;;;29.70;95.40;;;;;;5087994;28;20372;-81
2022/01/17 08:13:35;;;;;;;15.80;9.80;;;29.60;95.80;;;;;;5087889;28;20377;-80
2022/01/17 08:16:02;;;;;;;17.00;9.75;;;29.40;96.60;;;;;;5087851;28;20372;-80
2022/01/17 08:18:30;;;;;;;15.60;9.27;;;29.30;96.90;;;;;;5089009;28;20410;-80
2022/01/17 08:20:58;;;;;;;19.05;9.68;;;29.20;97.00;;;;;;5091510;28;20380;-81
2022/01/17 08:23:25;;;;;;;18.33;11.45;;;29.20;97.20;;;;;;5091735;28;20855;-84
2022/01/17 08:25:52;;;;;;;13.40;10.25;;;29.20;97.70;;;;;;5091367;28;20830;-80
2022/01/17 08:28:19;;;;;;;17.77;9.70;;;29.10;97.90;;;;;;5091451;28;20435;-82
2022/01/17 08:30:46;;;;;;;16.27;8.70;;;29.00;98.10;;;;;;5091383;28;20376;-81
2022/01/17 08:33:13;;;;;;;13.48;8.38;;;28.90;98.20;;;;;;5091351;28;20381;-82
2022/01/17 08:35:41;;;;;;;18.58;8.70;;;28.90;98.80;;;;;;5091266;28;20368;-82
2022/01/17 08:38:08;;;;;;;15.23;8.05;;;28.80;99.00;;;;;;5090988;28;20396;-83
2022/01/17 08:40:35;;;;;;;16.50;7.75;;;28.80;99.30;;;;;;5091295;28;20396;-82
2022/01/17 08:43:02;;;;;;;15.07;7.90;;;28.70;99.60;;;;;;5089899;28;20768;-84
2022/01/17 08:45:29;;;;;;;14.82;7.68;;;28.60;99.70;;;;;;5091132;28;20364;-83
2022/01/17 08:47:57;;;;;;;16.70;8.00;;;28.60;99.90;;;;;;5091063;28;20408;-83
2022/01/17 08:50:24;;;;;;;15.03;7.87;;;28.50;99.90;;;;;;5091012;28;20380;-85
2022/01/17 08:52:51;;;;;;;15.80;7.90;;;28.50;99.90;;;;;;5090899;28;20724;-84
2022/01/17 08:55:21;;;;;;;15.52;7.70;;;28.50;99.90;;;;;;5090852;28;20387;-83
2022/01/17 08:57:48;;;;;;;15.70;7.88;;;28.50;99.90;;;;;;5090867;28;20376;-83
2022/01/17 09:00:18;;;;;;;16.33;7.57;;;28.40;99.90;;;;;;5090875;28;20364;-82
2022/01/17 09:02:45;;;;;;;14.07;8.30;;;28.30;99.90;;;;;;5091145;28;20434;-84
2022/01/17 09:05:13;;;;;;;10.82;7.60;;;28.40;99.90;;;;;;5090683;28;20379;-83
2022/01/17 09:07:40;;;;;;;13.27;8.03;;;28.30;99.90;;;;;;5090663;28;20404;-82
2022/01/17 09:10:07;;;;;;;14.90;8.37;;;28.30;99.90;;;;;;5090368;28;20356;-82
2022/01/17 09:12:34;;;;;;;14.07;8.18;;;28.20;99.90;;;;;;5090771;28;20381;-83
2022/01/17 09:15:01;;;;;;;14.25;8.20;;;28.20;99.90;;;;;;5090515;28;20408;-80
2022/01/17 09:17:29;;;;;;;14.33;7.83;;;28.20;99.90;;;;;;5090526;28;20713;-82
2022/01/17 09:20:01;;;;;;;15.50;7.83;;;28.20;99.90;;;;;;5090656;28;20848;-83
2022/01/17 09:22:29;;;;;;;13.48;7.90;;;28.10;99.90;;;;;;5090483;28;20372;-82
2022/01/17 09:24:57;;;;;;;15.17;8.40;;;28.10;99.90;;;;;;5090543;28;20849;-83
2022/01/17 09:27:23;;;;;;;14.15;8.10;;;28.10;99.90;;;;;;5090281;28;20400;-83
2022/01/17 09:29:51;;;;;;;16.48;8.50;;;28.00;99.90;;;;;;5089370;28;20373;-81
2022/01/17 09:32:18;;;;;;;16.55;8.60;;;28.00;99.90;;;;;;5090197;28;20841;-82
2022/01/17 09:34:46;;;;;;;19.90;9.23;;;28.00;99.90;;;;;;5090202;28;20716;-84
2022/01/17 09:37:13;;;;;;;26.63;11.38;;;28.00;99.90;;;;;;5089917;28;20441;-82
2022/01/17 09:39:41;;;;;;;44.60;17.80;;;27.90;99.90;;;;;;5090193;28;20881;-83
2022/01/17 09:42:09;;;;;;;43.33;19.30;;;27.90;99.90;;;;;;5089978;28;20380;-83
2022/01/17 09:44:37;;;;;;;25.95;12.15;;;27.90;99.90;;;;;;5089984;28;20371;-82
2022/01/17 09:47:09;;;;;;;17.88;8.65;;;27.90;99.90;;;;;;5088360;28;20400;-83
2022/01/17 09:49:42;;;;;;;15.87;8.20;;;27.80;99.90;;;;;;5089733;28;20389;-82
2022/01/17 09:54:45;;;;;;;17.00;7.72;;;27.70;99.90;;;;;;5089630;28;20444;-84
2022/01/17 09:57:15;;;;;;;15.27;7.80;;;27.70;99.90;;;;;;5088765;28;20698;-83
2022/01/17 09:59:42;;;;;;;15.35;8.10;;;27.60;99.90;;;;;;5089706;28;20425;-85
2022/01/17 10:02:13;;;;;;;13.27;7.80;;;27.70;99.90;;;;;;5089541;28;20395;-83
2022/01/17 10:04:40;;;;;;;17.88;8.52;;;27.60;99.90;;;;;;5090016;28;20372;-83
2022/01/17 10:07:08;;;;;;;14.23;8.17;;;27.60;99.90;;;;;;5089366;28;20899;-81
2022/01/17 10:09:36;;;;;;;17.10;9.70;;;27.60;99.90;;;;;;5089514;28;20411;-83
2022/01/17 10:12:13;;;;;;;18.27;8.70;;;27.50;99.90;;;;;;5089399;28;20400;-83
2022/01/17 10:14:59;;;;;;;15.98;9.15;;;27.50;99.90;;;;;;5088465;28;20419;-83
2022/01/17 10:17:46;;;;;;;15.63;8.57;;;27.50;99.90;;;;;;5089231;28;20931;-82
2022/01/17 10:20:17;;;;;;;14.63;8.05;;;27.50;99.90;;;;;;5089229;28;20425;-83
2022/01/17 10:23:06;;;;;;;14.88;8.30;;;27.50;99.90;;;;;;5089228;28;20369;-82
2022/01/17 10:36:20;;;;;;;16.45;9.02;;;27.20;99.90;;;;;;5089311;28;20355;-82
2022/01/17 10:39:03;;;;;;;18.38;9.25;;;27.20;99.90;;;;;;5088705;28;20421;-81
2022/01/17 10:41:32;;;;;;;16.73;9.23;;;27.20;99.90;;;;;;5089461;28;20717;-82
2022/01/17 10:43:59;;;;;;;19.57;9.60;;;27.20;99.90;;;;;;5088901;28;20375;-83
2022/01/17 10:46:25;;;;;;;18.17;9.23;;;27.10;99.90;;;;;;5088788;28;20811;-82
2022/01/17 10:48:54;;;;;;;16.42;8.65;;;27.00;99.90;;;;;;5088798;28;20732;-81
2022/01/17 10:51:35;;;;;;;16.02;8.38;;;27.00;99.90;;;;;;5088687;28;20364;-81
2022/01/17 10:54:17;;;;;;;14.65;8.02;;;26.90;99.90;;;;;;5088895;28;20384;-81
2022/01/17 10:56:56;;;;;;;15.95;8.02;;;27.00;99.90;;;;;;5088630;28;20388;-80
2022/01/17 10:59:36;;;;;;;16.55;8.07;;;27.00;99.90;;;;;;5089247;28;20369;-84
2022/01/17 11:02:04;;;;;;;17.88;8.52;;;27.00;99.90;;;;;;5088700;28;20375;-81
2022/01/17 11:04:41;;;;;;;19.42;8.50;;;27.00;99.90;;;;;;5088588;28;20383;-82
2022/01/17 11:07:09;;;;;;;16.63;8.57;;;27.00;99.90;;;;;;5088347;28;20407;-82
2022/01/17 11:09:41;;;;;;;17.52;8.95;;;27.00;99.90;;;;;;5088488;28;20372;-81
2022/01/17 11:12:13;;;;;;;16.80;8.80;;;27.00;99.90;;;;;;5088513;28;20376;-84
2022/01/17 11:14:41;;;;;;;19.10;8.88;;;27.00;99.90;;;;;;5088373;28;20357;-81
2022/01/17 11:17:33;;;;;;;15.95;8.57;;;26.90;99.90;;;;;;5088438;28;20429;-81
2022/01/17 11:20:09;;;;;;;17.93;9.07;;;26.90;99.90;;;;;;5088465;28;20379;-81
2022/01/17 11:22:38;;;;;;;19.02;9.90;;;26.80;99.90;;;;;;5088480;28;20368;-83
2022/01/17 11:25:08;;;;;;;16.77;9.38;;;26.80;99.90;;;;;;5088419;28;20372;-82
2022/01/17 11:27:35;;;;;;;23.92;10.30;;;26.70;99.90;;;;;;5088311;28;20898;-82
2022/01/17 11:30:03;;;;;;;17.48;10.23;;;26.70;99.90;;;;;;5088406;28;20821;-82
2022/01/17 11:32:30;;;;;;;18.00;9.53;;;26.60;99.90;;;;;;5088361;28;20867;-83
2022/01/17 11:35:02;;;;;;;20.48;10.18;;;26.60;99.90;;;;;;5088257;28;20459;-82
2022/01/17 11:37:33;;;;;;;18.53;10.33;;;26.50;99.90;;;;;;5088141;28;20420;-83
2022/01/17 11:40:01;;;;;;;20.45;10.20;;;26.60;99.90;;;;;;5088288;28;20889;-83
2022/01/17 11:42:47;;;;;;;19.48;10.65;;;26.60;99.90;;;;;;5088238;28;20852;-82
2022/01/17 11:45:23;;;;;;;23.40;11.45;;;26.60;99.90;;;;;;5088484;28;20451;-83
2022/01/17 11:47:55;;;;;;;19.33;11.55;;;26.60;99.90;;;;;;5088117;28;20392;-82
2022/01/17 11:50:36;;;;;;;22.85;11.85;;;26.50;99.90;;;;;;5088280;28;20357;-82
2022/01/17 11:53:12;;;;;;;23.20;12.32;;;26.50;99.90;;;;;;5088813;28;20368;-82
2022/01/17 11:55:44;;;;;;;21.90;12.98;;;26.50;99.90;;;;;;5092458;28;20364;-83
2022/01/17 11:58:31;;;;;;;18.92;11.95;;;26.50;99.90;;;;;;5092061;28;20369;-82
2022/01/17 12:01:01;;;;;;;17.90;11.60;;;26.50;99.90;;;;;;5091978;28;20376;-82
2022/01/17 12:03:30;;;;;;;18.73;12.13;;;26.50;99.90;;;;;;5091991;28;20385;-82
2022/01/17 12:06:04;;;;;;;20.13;12.57;;;26.50;99.90;;;;;;5091875;28;20471;-82
2022/01/17 12:08:32;;;;;;;19.90;12.38;;;26.50;99.90;;;;;;5091984;28;20376;-82
2022/01/17 12:11:07;;;;;;;23.85;13.43;;;26.40;99.90;;;;;;5091856;28;20366;-81
2022/01/17 12:13:44;;;;;;;23.23;13.15;;;26.40;99.90;;;;;;5091742;28;20841;-82
2022/01/17 12:16:21;;;;;;;20.50;12.25;;;26.40;99.90;;;;;;5091870;28;20384;-81
2022/01/17 12:19:05;;;;;;;19.58;12.75;;;26.30;99.90;;;;;;5091603;28;20364;-81
2022/01/17 12:21:43;;;;;;;21.75;13.20;;;26.30;99.90;;;;;;5091914;28;20373;-81
2022/01/17 12:24:34;;;;;;;23.40;13.45;;;26.30;99.90;;;;;;5091639;28;20361;-81
2022/01/17 12:27:01;;;;;;;25.77;12.80;;;26.30;99.90;;;;;;5091527;28;20487;-81
2022/01/17 12:29:43;;;;;;;23.85;11.82;;;26.30;99.90;;;;;;5091576;28;20372;-81
2022/01/17 12:32:34;;;;;;;21.90;11.70;;;26.30;99.90;;;;;;5091452;28;20379;-82
2022/01/17 12:35:08;;;;;;;25.55;12.40;;;26.30;99.90;;;;;;5090166;28;20928;-82
2022/01/17 12:37:36;;;;;;;21.67;11.25;;;26.20;99.90;;;;;;5091462;28;20398;-82
2022/01/17 12:40:17;;;;;;;18.35;10.73;;;26.20;99.90;;;;;;5091322;28;20380;-82
2022/01/17 12:43:02;;;;;;;15.27;10.10;;;26.20;99.90;;;;;;5091252;28;20899;-82
2022/01/17 12:45:31;;;;;;;14.07;8.55;;;26.20;99.90;;;;;;5091147;28;20791;-81
2022/01/17 12:48:00;;;;;;;18.13;9.10;;;26.20;99.90;;;;;;5091547;28;20392;-82
2022/01/17 12:50:28;;;;;;;14.77;8.30;;;26.20;99.90;;;;;;5091012;28;20357;-83
2022/01/17 12:52:57;;;;;;;11.43;6.80;;;26.20;99.90;;;;;;5091021;28;20444;-82
2022/01/17 12:55:33;;;;;;;13.17;7.40;;;26.10;99.90;;;;;;5091052;28;20361;-82
2022/01/17 12:58:00;;;;;;;10.55;6.43;;;26.10;99.90;;;;;;5089606;28;20461;-82
2022/01/17 13:00:27;;;;;;;9.98;5.63;;;26.20;99.90;;;;;;5091192;28;20702;-82
2022/01/17 13:02:56;;;;;;;8.80;5.13;;;26.20;99.90;;;;;;5090843;28;20918;-82
2022/01/17 13:05:31;;;;;;;7.35;4.65;;;26.20;99.90;;;;;;5089487;28;20384;-82
2022/01/17 13:08:03;;;;;;;7.85;5.18;;;26.20;99.90;;;;;;5090600;28;20396;-82
2022/01/17 13:10:31;;;;;;;8.13;4.93;;;26.20;99.90;;;;;;5090647;28;20392;-82
2022/01/17 13:12:59;;;;;;;7.68;4.10;;;26.20;99.90;;;;;;5090580;28;20484;-81
2022/01/17 13:15:26;;;;;;;5.45;3.80;;;26.20;99.90;;;;;;5090617;28;20789;-82
2022/01/17 13:17:54;;;;;;;5.07;3.42;;;26.20;99.90;;;;;;5090607;28;20368;-83
2022/01/17 13:20:22;;;;;;;5.30;3.30;;;26.20;99.90;;;;;;5090721;28;20361;-82
2022/01/17 13:22:56;;;;;;;6.03;3.30;;;26.20;99.90;;;;;;5090546;28;20511;-83
2022/01/17 13:25:24;;;;;;;5.38;3.42;;;26.20;99.90;;;;;;5089187;28;20502;-83